sensor_id;sensor_type;location;lat;lon;timestamp;P1;durP1;ratioP1;P2;durP2;ratioP2
5393;SDS011;2720;52.396;10.064;2023-02-01T00:00:27;13.57;;;2.77;;
5393;SDS011;2720;52.396;10.064;2023-02-01T00:02:54;30.10;;;3.00;;
5393;SDS011;2720;52.396;10.064;2023-02-01T00:05:21;23.57;;;3.10;;
5393;SDS011;2720;52.396;10.064;2023-02-01T00:07:48;18.90;;;2.27;;
5393;SDS011;2720;52.396;10.064;2023-02-01T00:10:17;20.90;;;3.43;;
5393;SDS011;2720;52.396;10.064;2023-02-01T00:12:44;15.37;;;2.90;;
5393;SDS011;2720;52.396;10.064;2023-02-01T00:15:11;15.23;;;3.10;;
5393;SDS011;2720;52.396;10.064;2023-02-01T00:17:38;16.57;;;2.60;;
5393;SDS011;2720;52.396;10.064;2023-02-01T00:20:06;23.60;;;3.20;;
5393;SDS011;2720;52.396;10.064;2023-02-01T00:22:33;16.63;;;3.00;;
5393;SDS011;2720;52.396;10.064;2023-02-01T00:25:00;30.63;;;3.10;;
5393;SDS011;2720;52.396;10.064;2023-02-01T00:27:29;18.53;;;2.90;;
5393;SDS011;2720;52.396;10.064;2023-02-01T00:29:56;12.97;;;3.30;;
5393;SDS011;2720;52.396;10.064;2023-02-01T00:32:23;36.17;;;3.73;;
5393;SDS011;2720;52.396;10.064;2023-02-01T00:34:50;18.30;;;2.30;;
5393;SDS011;2720;52.396;10.064;2023-02-01T00:37:17;23.50;;;3.30;;
5393;SDS011;2720;52.396;10.064;2023-02-01T00:39:44;20.00;;;4.67;;
5393;SDS011;2720;52.396;10.064;2023-02-01T00:42:11;34.87;;;4.20;;
5393;SDS011;2720;52.396;10.064;2023-02-01T00:44:39;17.97;;;2.47;;
5393;SDS011;2720;52.396;10.064;2023-02-01T00:47:06;24.27;;;3.40;;
5393;SDS011;2720;52.396;10.064;2023-02-01T00:49:33;27.13;;;3.17;;
5393;SDS011;2720;52.396;10.064;2023-02-01T00:52:00;20.80;;;2.83;;
5393;SDS011;2720;52.396;10.064;2023-02-01T00:54:27;11.47;;;2.63;;
5393;SDS011;2720;52.396;10.064;2023-02-01T00:56:54;24.67;;;3.07;;
5393;SDS011;2720;52.396;10.064;2023-02-01T00:59:21;17.93;;;3.43;;
5393;SDS011;2720;52.396;10.064;2023-02-01T01:01:49;9.83;;;3.50;;
5393;SDS011;2720;52.396;10.064;2023-02-01T01:04:16;22.27;;;2.90;;
5393;SDS011;2720;52.396;10.064;2023-02-01T01:06:43;15.80;;;2.93;;
5393;SDS011;2720;52.396;10.064;2023-02-01T01:09:10;23.50;;;2.80;;
5393;SDS011;2720;52.396;10.064;2023-02-01T01:11:37;17.80;;;2.80;;
5393;SDS011;2720;52.396;10.064;2023-02-01T01:14:05;36.03;;;6.00;;
5393;SDS011;2720;52.396;10.064;2023-02-01T01:16:34;18.27;;;2.60;;
5393;SDS011;2720;52.396;10.064;2023-02-01T01:19:02;19.23;;;4.27;;
5393;SDS011;2720;52.396;10.064;2023-02-01T01:21:30;17.70;;;3.37;;
5393;SDS011;2720;52.396;10.064;2023-02-01T01:23:57;16.93;;;3.87;;
5393;SDS011;2720;52.396;10.064;2023-02-01T01:26:25;20.37;;;3.63;;
5393;SDS011;2720;52.396;10.064;2023-02-01T01:28:54;22.77;;;2.90;;
5393;SDS011;2720;52.396;10.064;2023-02-01T01:31:22;17.30;;;2.93;;
5393;SDS011;2720;52.396;10.064;2023-02-01T01:33:50;25.50;;;4.50;;
5393;SDS011;2720;52.396;10.064;2023-02-01T01:36:20;14.90;;;2.80;;
5393;SDS011;2720;52.396;10.064;2023-02-01T01:38:47;19.30;;;3.13;;
5393;SDS011;2720;52.396;10.064;2023-02-01T01:41:15;15.90;;;2.80;;
5393;SDS011;2720;52.396;10.064;2023-02-01T01:43:53;22.67;;;4.90;;
5393;SDS011;2720;52.396;10.064;2023-02-01T01:46:22;18.90;;;2.17;;
5393;SDS011;2720;52.396;10.064;2023-02-01T01:48:52;24.27;;;3.00;;
5393;SDS011;2720;52.396;10.064;2023-02-01T01:51:24;26.20;;;3.30;;
5393;SDS011;2720;52.396;10.064;2023-02-01T01:53:56;25.10;;;4.63;;
5393;SDS011;2720;52.396;10.064;2023-02-01T01:56:27;34.40;;;4.70;;
5393;SDS011;2720;52.396;10.064;2023-02-01T01:58:56;26.93;;;3.77;;
5393;SDS011;2720;52.396;10.064;2023-02-01T02:01:23;18.43;;;2.67;;
5393;SDS011;2720;52.396;10.064;2023-02-01T02:03:50;24.50;;;3.00;;
5393;SDS011;2720;52.396;10.064;2023-02-01T02:06:21;27.67;;;3.37;;
5393;SDS011;2720;52.396;10.064;2023-02-01T02:09:06;18.77;;;3.57;;
5393;SDS011;2720;52.396;10.064;2023-02-01T02:11:34;19.70;;;3.70;;
5393;SDS011;2720;52.396;10.064;2023-02-01T02:14:01;15.73;;;2.97;;
5393;SDS011;2720;52.396;10.064;2023-02-01T02:16:33;32.20;;;4.73;;
5393;SDS011;2720;52.396;10.064;2023-02-01T02:19:22;22.20;;;4.30;;
5393;SDS011;2720;52.396;10.064;2023-02-01T02:22:22;28.77;;;3.50;;
5393;SDS011;2720;52.396;10.064;2023-02-01T02:25:18;24.10;;;3.27;;
5393;SDS011;2720;52.396;10.064;2023-02-01T02:28:13;19.73;;;2.50;;
5393;SDS011;2720;52.396;10.064;2023-02-01T02:30:54;23.30;;;3.60;;
5393;SDS011;2720;52.396;10.064;2023-02-01T02:33:53;20.10;;;2.73;;
5393;SDS011;2720;52.396;10.064;2023-02-01T02:36:34;22.23;;;3.27;;
5393;SDS011;2720;52.396;10.064;2023-02-01T02:39:11;18.20;;;3.73;;
5393;SDS011;2720;52.396;10.064;2023-02-01T02:41:48;27.43;;;3.77;;
5393;SDS011;2720;52.396;10.064;2023-02-01T02:44:39;10.57;;;2.53;;
5393;SDS011;2720;52.396;10.064;2023-02-01T02:47:32;15.60;;;2.53;;
5393;SDS011;2720;52.396;10.064;2023-02-01T02:50:08;13.70;;;2.73;;
5393;SDS011;2720;52.396;10.064;2023-02-01T02:52:57;16.50;;;2.47;;
5393;SDS011;2720;52.396;10.064;2023-02-01T02:55:45;17.37;;;3.10;;
5393;SDS011;2720;52.396;10.064;2023-02-01T02:58:13;13.97;;;2.77;;
5393;SDS011;2720;52.396;10.064;2023-02-01T03:00:59;19.77;;;2.97;;
5393;SDS011;2720;52.396;10.064;2023-02-01T03:03:46;19.53;;;3.70;;
5393;SDS011;2720;52.396;10.064;2023-02-01T03:06:36;22.37;;;3.90;;
5393;SDS011;2720;52.396;10.064;2023-02-01T03:09:05;26.27;;;5.83;;
5393;SDS011;2720;52.396;10.064;2023-02-01T03:11:39;27.70;;;4.00;;
5393;SDS011;2720;52.396;10.064;2023-02-01T03:14:28;13.07;;;2.93;;
5393;SDS011;2720;52.396;10.064;2023-02-01T03:16:57;26.37;;;3.30;;
5393;SDS011;2720;52.396;10.064;2023-02-01T03:19:31;21.97;;;2.90;;
5393;SDS011;2720;52.396;10.064;2023-02-01T03:22:03;21.07;;;4.53;;
5393;SDS011;2720;52.396;10.064;2023-02-01T03:24:34;13.23;;;2.73;;
5393;SDS011;2720;52.396;10.064;2023-02-01T03:27:05;16.73;;;2.77;;
5393;SDS011;2720;52.396;10.064;2023-02-01T03:29:39;17.40;;;3.20;;
5393;SDS011;2720;52.396;10.064;2023-02-01T03:32:10;33.83;;;4.53;;
5393;SDS011;2720;52.396;10.064;2023-02-01T03:34:38;21.23;;;3.87;;
5393;SDS011;2720;52.396;10.064;2023-02-01T03:37:08;19.50;;;4.50;;
5393;SDS011;2720;52.396;10.064;2023-02-01T03:39:38;16.33;;;2.50;;
5393;SDS011;2720;52.396;10.064;2023-02-01T03:42:10;19.73;;;2.60;;
5393;SDS011;2720;52.396;10.064;2023-02-01T03:44:44;21.13;;;3.37;;
5393;SDS011;2720;52.396;10.064;2023-02-01T03:47:16;17.20;;;3.03;;
5393;SDS011;2720;52.396;10.064;2023-02-01T03:49:47;24.60;;;4.23;;
5393;SDS011;2720;52.396;10.064;2023-02-01T03:52:18;25.07;;;2.60;;
5393;SDS011;2720;52.396;10.064;2023-02-01T03:54:48;22.07;;;3.17;;
5393;SDS011;2720;52.396;10.064;2023-02-01T03:57:17;26.23;;;2.97;;
5393;SDS011;2720;52.396;10.064;2023-02-01T03:59:50;17.30;;;2.90;;
5393;SDS011;2720;52.396;10.064;2023-02-01T04:02:17;21.63;;;2.83;;
5393;SDS011;2720;52.396;10.064;2023-02-01T04:04:44;19.90;;;3.47;;
5393;SDS011;2720;52.396;10.064;2023-02-01T04:07:11;19.40;;;3.40;;
5393;SDS011;2720;52.396;10.064;2023-02-01T04:09:40;9.10;;;2.43;;
5393;SDS011;2720;52.396;10.064;2023-02-01T04:12:07;18.20;;;2.77;;
5393;SDS011;2720;52.396;10.064;2023-02-01T04:14:34;22.57;;;4.07;;
5393;SDS011;2720;52.396;10.064;2023-02-01T04:17:01;21.13;;;3.50;;
5393;SDS011;2720;52.396;10.064;2023-02-01T04:19:28;17.80;;;2.60;;
5393;SDS011;2720;52.396;10.064;2023-02-01T04:21:55;16.50;;;2.93;;
5393;SDS011;2720;52.396;10.064;2023-02-01T04:24:22;21.17;;;2.67;;
5393;SDS011;2720;52.396;10.064;2023-02-01T04:26:50;19.83;;;3.60;;
5393;SDS011;2720;52.396;10.064;2023-02-01T04:29:17;14.10;;;3.27;;
5393;SDS011;2720;52.396;10.064;2023-02-01T04:31:44;19.77;;;3.70;;
5393;SDS011;2720;52.396;10.064;2023-02-01T04:34:11;20.97;;;3.30;;
5393;SDS011;2720;52.396;10.064;2023-02-01T04:36:38;25.33;;;3.30;;
5393;SDS011;2720;52.396;10.064;2023-02-01T04:39:05;35.17;;;5.03;;
5393;SDS011;2720;52.396;10.064;2023-02-01T04:41:32;21.50;;;3.70;;
5393;SDS011;2720;52.396;10.064;2023-02-01T04:44:00;29.53;;;3.37;;
5393;SDS011;2720;52.396;10.064;2023-02-01T04:46:27;24.23;;;3.50;;
5393;SDS011;2720;52.396;10.064;2023-02-01T04:48:54;25.57;;;3.27;;
5393;SDS011;2720;52.396;10.064;2023-02-01T04:51:21;22.87;;;3.90;;
5393;SDS011;2720;52.396;10.064;2023-02-01T04:53:48;19.20;;;3.73;;
5393;SDS011;2720;52.396;10.064;2023-02-01T04:56:15;14.70;;;2.43;;
5393;SDS011;2720;52.396;10.064;2023-02-01T04:58:42;15.90;;;4.80;;
5393;SDS011;2720;52.396;10.064;2023-02-01T05:01:11;28.67;;;3.30;;
5393;SDS011;2720;52.396;10.064;2023-02-01T05:03:38;25.77;;;3.07;;
5393;SDS011;2720;52.396;10.064;2023-02-01T05:06:04;10.57;;;3.33;;
5393;SDS011;2720;52.396;10.064;2023-02-01T05:08:32;21.20;;;3.63;;
5393;SDS011;2720;52.396;10.064;2023-02-01T05:10:59;25.97;;;3.03;;
5393;SDS011;2720;52.396;10.064;2023-02-01T05:13:27;16.27;;;3.93;;
5393;SDS011;2720;52.396;10.064;2023-02-01T05:16:13;23.50;;;4.00;;
5393;SDS011;2720;52.396;10.064;2023-02-01T05:18:41;13.37;;;3.30;;
5393;SDS011;2720;52.396;10.064;2023-02-01T05:21:08;12.70;;;2.90;;
5393;SDS011;2720;52.396;10.064;2023-02-01T05:23:35;23.73;;;3.90;;
5393;SDS011;2720;52.396;10.064;2023-02-01T05:26:22;21.57;;;3.43;;
5393;SDS011;2720;52.396;10.064;2023-02-01T05:28:49;15.13;;;3.47;;
5393;SDS011;2720;52.396;10.064;2023-02-01T05:31:18;26.37;;;4.33;;
5393;SDS011;2720;52.396;10.064;2023-02-01T05:33:45;17.07;;;3.80;;
5393;SDS011;2720;52.396;10.064;2023-02-01T05:36:12;25.93;;;3.80;;
5393;SDS011;2720;52.396;10.064;2023-02-01T05:38:39;24.33;;;4.10;;
5393;SDS011;2720;52.396;10.064;2023-02-01T05:41:06;17.07;;;3.90;;
5393;SDS011;2720;52.396;10.064;2023-02-01T05:43:33;22.50;;;5.63;;
5393;SDS011;2720;52.396;10.064;2023-02-01T05:46:00;25.33;;;4.20;;
5393;SDS011;2720;52.396;10.064;2023-02-01T05:48:29;25.97;;;3.60;;
5393;SDS011;2720;52.396;10.064;2023-02-01T05:50:56;31.23;;;5.43;;
5393;SDS011;2720;52.396;10.064;2023-02-01T05:53:23;18.83;;;5.30;;
5393;SDS011;2720;52.396;10.064;2023-02-01T05:55:50;19.50;;;5.43;;
5393;SDS011;2720;52.396;10.064;2023-02-01T05:58:17;18.67;;;4.50;;
5393;SDS011;2720;52.396;10.064;2023-02-01T06:00:44;28.73;;;4.50;;
5393;SDS011;2720;52.396;10.064;2023-02-01T06:03:11;30.63;;;5.40;;
5393;SDS011;2720;52.396;10.064;2023-02-01T06:05:39;15.23;;;4.70;;
5393;SDS011;2720;52.396;10.064;2023-02-01T06:08:06;23.30;;;4.70;;
5393;SDS011;2720;52.396;10.064;2023-02-01T06:10:34;20.53;;;3.87;;
5393;SDS011;2720;52.396;10.064;2023-02-01T06:13:01;19.10;;;4.50;;
5393;SDS011;2720;52.396;10.064;2023-02-01T06:15:28;23.20;;;4.53;;
5393;SDS011;2720;52.396;10.064;2023-02-01T06:17:56;17.20;;;4.03;;
5393;SDS011;2720;52.396;10.064;2023-02-01T06:20:23;14.20;;;3.70;;
5393;SDS011;2720;52.396;10.064;2023-02-01T06:22:52;24.00;;;4.93;;
5393;SDS011;2720;52.396;10.064;2023-02-01T06:25:19;19.80;;;4.47;;
5393;SDS011;2720;52.396;10.064;2023-02-01T06:27:46;10.80;;;3.73;;
5393;SDS011;2720;52.396;10.064;2023-02-01T06:30:13;32.27;;;5.67;;
5393;SDS011;2720;52.396;10.064;2023-02-01T06:32:40;13.30;;;3.50;;
5393;SDS011;2720;52.396;10.064;2023-02-01T06:35:08;16.27;;;3.70;;
5393;SDS011;2720;52.396;10.064;2023-02-01T06:37:41;21.93;;;4.77;;
5393;SDS011;2720;52.396;10.064;2023-02-01T06:40:10;14.00;;;3.20;;
5393;SDS011;2720;52.396;10.064;2023-02-01T06:42:38;19.60;;;4.97;;
5393;SDS011;2720;52.396;10.064;2023-02-01T06:45:05;12.47;;;3.50;;
5393;SDS011;2720;52.396;10.064;2023-02-01T06:47:33;16.37;;;3.70;;
5393;SDS011;2720;52.396;10.064;2023-02-01T06:50:00;10.97;;;3.23;;
5393;SDS011;2720;52.396;10.064;2023-02-01T06:52:27;18.90;;;3.57;;
5393;SDS011;2720;52.396;10.064;2023-02-01T06:54:54;9.77;;;2.53;;
5393;SDS011;2720;52.396;10.064;2023-02-01T06:57:22;9.83;;;3.20;;
5393;SDS011;2720;52.396;10.064;2023-02-01T06:59:50;13.13;;;3.30;;
5393;SDS011;2720;52.396;10.064;2023-02-01T07:02:17;5.70;;;2.63;;
5393;SDS011;2720;52.396;10.064;2023-02-01T07:04:44;15.70;;;3.53;;
5393;SDS011;2720;52.396;10.064;2023-02-01T07:07:11;17.33;;;3.03;;
5393;SDS011;2720;52.396;10.064;2023-02-01T07:09:39;10.37;;;2.80;;
5393;SDS011;2720;52.396;10.064;2023-02-01T07:12:06;17.03;;;3.00;;
5393;SDS011;2720;52.396;10.064;2023-02-01T07:14:35;21.10;;;3.57;;
5393;SDS011;2720;52.396;10.064;2023-02-01T07:17:02;11.53;;;3.57;;
5393;SDS011;2720;52.396;10.064;2023-02-01T07:19:29;16.20;;;3.70;;
5393;SDS011;2720;52.396;10.064;2023-02-01T07:21:56;11.73;;;3.07;;
5393;SDS011;2720;52.396;10.064;2023-02-01T07:24:23;9.37;;;2.90;;
5393;SDS011;2720;52.396;10.064;2023-02-01T07:26:50;13.93;;;3.20;;
5393;SDS011;2720;52.396;10.064;2023-02-01T07:29:17;20.20;;;3.53;;
5393;SDS011;2720;52.396;10.064;2023-02-01T07:31:45;10.20;;;3.17;;
5393;SDS011;2720;52.396;10.064;2023-02-01T07:34:12;14.10;;;3.10;;
5393;SDS011;2720;52.396;10.064;2023-02-01T07:36:39;11.43;;;3.00;;
5393;SDS011;2720;52.396;10.064;2023-02-01T07:39:06;8.60;;;2.90;;
5393;SDS011;2720;52.396;10.064;2023-02-01T07:41:34;26.10;;;3.07;;
5393;SDS011;2720;52.396;10.064;2023-02-01T07:44:01;19.23;;;4.50;;
5393;SDS011;2720;52.396;10.064;2023-02-01T07:46:28;20.90;;;4.40;;
5393;SDS011;2720;52.396;10.064;2023-02-01T07:48:56;19.00;;;3.27;;
5393;SDS011;2720;52.396;10.064;2023-02-01T07:51:23;17.70;;;3.83;;
5393;SDS011;2720;52.396;10.064;2023-02-01T07:53:50;23.67;;;5.13;;
5393;SDS011;2720;52.396;10.064;2023-02-01T07:56:17;27.47;;;4.80;;
5393;SDS011;2720;52.396;10.064;2023-02-01T07:58:47;19.57;;;2.20;;
5393;SDS011;2720;52.396;10.064;2023-02-01T08:01:15;30.30;;;4.40;;
5393;SDS011;2720;52.396;10.064;2023-02-01T08:03:45;14.10;;;4.17;;
5393;SDS011;2720;52.396;10.064;2023-02-01T08:06:14;24.17;;;4.03;;
5393;SDS011;2720;52.396;10.064;2023-02-01T08:08:41;16.80;;;3.60;;
5393;SDS011;2720;52.396;10.064;2023-02-01T08:11:10;25.90;;;3.40;;
5393;SDS011;2720;52.396;10.064;2023-02-01T08:13:37;11.53;;;2.83;;
5393;SDS011;2720;52.396;10.064;2023-02-01T08:16:05;25.43;;;3.40;;
5393;SDS011;2720;52.396;10.064;2023-02-01T08:18:34;18.20;;;4.07;;
5393;SDS011;2720;52.396;10.064;2023-02-01T08:21:04;18.50;;;4.20;;
5393;SDS011;2720;52.396;10.064;2023-02-01T08:23:34;30.13;;;4.20;;
5393;SDS011;2720;52.396;10.064;2023-02-01T08:26:06;25.07;;;3.70;;
5393;SDS011;2720;52.396;10.064;2023-02-01T08:28:34;16.97;;;2.20;;
5393;SDS011;2720;52.396;10.064;2023-02-01T08:31:03;20.90;;;3.10;;
5393;SDS011;2720;52.396;10.064;2023-02-01T08:33:31;14.07;;;2.50;;
5393;SDS011;2720;52.396;10.064;2023-02-01T08:36:00;16.03;;;3.40;;
5393;SDS011;2720;52.396;10.064;2023-02-01T08:38:28;12.30;;;2.60;;
5393;SDS011;2720;52.396;10.064;2023-02-01T08:40:56;10.80;;;2.00;;
5393;SDS011;2720;52.396;10.064;2023-02-01T08:43:23;14.60;;;3.60;;
5393;SDS011;2720;52.396;10.064;2023-02-01T08:45:50;17.30;;;3.23;;
5393;SDS011;2720;52.396;10.064;2023-02-01T08:48:20;20.23;;;3.83;;
5393;SDS011;2720;52.396;10.064;2023-02-01T08:50:47;24.50;;;4.70;;
5393;SDS011;2720;52.396;10.064;2023-02-01T08:53:14;18.87;;;3.47;;
5393;SDS011;2720;52.396;10.064;2023-02-01T08:55:41;23.03;;;4.97;;
5393;SDS011;2720;52.396;10.064;2023-02-01T08:58:09;19.83;;;3.47;;
5393;SDS011;2720;52.396;10.064;2023-02-01T09:00:36;15.27;;;3.20;;
5393;SDS011;2720;52.396;10.064;2023-02-01T09:03:03;13.10;;;4.33;;
5393;SDS011;2720;52.396;10.064;2023-02-01T09:05:30;21.30;;;3.43;;
5393;SDS011;2720;52.396;10.064;2023-02-01T09:07:57;24.50;;;3.10;;
5393;SDS011;2720;52.396;10.064;2023-02-01T09:10:24;18.67;;;3.80;;
5393;SDS011;2720;52.396;10.064;2023-02-01T09:12:51;17.73;;;3.90;;
5393;SDS011;2720;52.396;10.064;2023-02-01T09:15:20;8.40;;;3.20;;
5393;SDS011;2720;52.396;10.064;2023-02-01T09:17:46;23.90;;;3.90;;
5393;SDS011;2720;52.396;10.064;2023-02-01T09:20:14;36.73;;;5.10;;
5393;SDS011;2720;52.396;10.064;2023-02-01T09:22:41;40.37;;;3.60;;
5393;SDS011;2720;52.396;10.064;2023-02-01T09:25:08;35.63;;;4.40;;
5393;SDS011;2720;52.396;10.064;2023-02-01T09:27:35;8.83;;;2.30;;
5393;SDS011;2720;52.396;10.064;2023-02-01T09:30:02;12.97;;;2.60;;
5393;SDS011;2720;52.396;10.064;2023-02-01T09:32:32;10.60;;;3.23;;
5393;SDS011;2720;52.396;10.064;2023-02-01T09:34:59;14.40;;;2.20;;
5393;SDS011;2720;52.396;10.064;2023-02-01T09:37:25;29.07;;;3.97;;
5393;SDS011;2720;52.396;10.064;2023-02-01T09:39:52;16.20;;;2.73;;
5393;SDS011;2720;52.396;10.064;2023-02-01T09:42:23;16.70;;;3.57;;
5393;SDS011;2720;52.396;10.064;2023-02-01T09:45:04;14.03;;;2.50;;
5393;SDS011;2720;52.396;10.064;2023-02-01T09:47:43;20.03;;;4.03;;
5393;SDS011;2720;52.396;10.064;2023-02-01T09:50:15;14.10;;;2.30;;
5393;SDS011;2720;52.396;10.064;2023-02-01T09:52:48;8.83;;;2.07;;
5393;SDS011;2720;52.396;10.064;2023-02-01T09:55:21;9.73;;;3.47;;
5393;SDS011;2720;52.396;10.064;2023-02-01T09:57:58;7.90;;;3.13;;
5393;SDS011;2720;52.396;10.064;2023-02-01T10:00:27;12.97;;;2.73;;
5393;SDS011;2720;52.396;10.064;2023-02-01T10:02:58;14.80;;;2.40;;
5393;SDS011;2720;52.396;10.064;2023-02-01T10:05:30;10.30;;;2.53;;
5393;SDS011;2720;52.396;10.064;2023-02-01T10:08:12;21.37;;;2.83;;
5393;SDS011;2720;52.396;10.064;2023-02-01T10:10:49;7.43;;;2.13;;
5393;SDS011;2720;52.396;10.064;2023-02-01T10:13:23;12.20;;;2.40;;
5393;SDS011;2720;52.396;10.064;2023-02-01T10:16:11;5.77;;;2.37;;
5393;SDS011;2720;52.396;10.064;2023-02-01T10:21:39;17.97;;;3.20;;
5393;SDS011;2720;52.396;10.064;2023-02-01T10:24:16;11.27;;;2.40;;
5393;SDS011;2720;52.396;10.064;2023-02-01T10:26:51;16.40;;;2.50;;
5393;SDS011;2720;52.396;10.064;2023-02-01T10:29:22;15.17;;;3.43;;
5393;SDS011;2720;52.396;10.064;2023-02-01T10:31:53;13.47;;;2.30;;
5393;SDS011;2720;52.396;10.064;2023-02-01T10:34:24;13.47;;;1.87;;
5393;SDS011;2720;52.396;10.064;2023-02-01T10:36:55;11.83;;;2.60;;
5393;SDS011;2720;52.396;10.064;2023-02-01T10:39:23;18.40;;;4.90;;
5393;SDS011;2720;52.396;10.064;2023-02-01T10:41:50;14.13;;;2.20;;
5393;SDS011;2720;52.396;10.064;2023-02-01T10:44:19;10.63;;;2.27;;
5393;SDS011;2720;52.396;10.064;2023-02-01T10:46:51;12.00;;;3.30;;
5393;SDS011;2720;52.396;10.064;2023-02-01T10:49:19;14.50;;;3.40;;
5393;SDS011;2720;52.396;10.064;2023-02-01T10:51:53;11.43;;;2.23;;
5393;SDS011;2720;52.396;10.064;2023-02-01T10:54:31;10.20;;;2.10;;
5393;SDS011;2720;52.396;10.064;2023-02-01T10:57:00;26.17;;;3.53;;
5393;SDS011;2720;52.396;10.064;2023-02-01T10:59:27;15.57;;;3.40;;
5393;SDS011;2720;52.396;10.064;2023-02-01T11:01:58;11.63;;;3.10;;
5393;SDS011;2720;52.396;10.064;2023-02-01T11:04:28;11.53;;;2.73;;
5393;SDS011;2720;52.396;10.064;2023-02-01T11:07:07;6.73;;;1.60;;
5393;SDS011;2720;52.396;10.064;2023-02-01T11:09:50;12.27;;;2.30;;
5393;SDS011;2720;52.396;10.064;2023-02-01T11:12:25;17.03;;;2.37;;
5393;SDS011;2720;52.396;10.064;2023-02-01T11:14:59;18.03;;;2.83;;
5393;SDS011;2720;52.396;10.064;2023-02-01T11:17:32;19.40;;;3.80;;
5393;SDS011;2720;52.396;10.064;2023-02-01T11:20:03;14.87;;;1.80;;
5393;SDS011;2720;52.396;10.064;2023-02-01T11:22:33;7.30;;;2.30;;
5393;SDS011;2720;52.396;10.064;2023-02-01T11:25:01;17.23;;;2.27;;
5393;SDS011;2720;52.396;10.064;2023-02-01T11:27:33;17.80;;;2.60;;
5393;SDS011;2720;52.396;10.064;2023-02-01T11:30:00;13.30;;;2.70;;
5393;SDS011;2720;52.396;10.064;2023-02-01T11:32:29;27.37;;;2.80;;
5393;SDS011;2720;52.396;10.064;2023-02-01T11:34:57;5.30;;;2.13;;
5393;SDS011;2720;52.396;10.064;2023-02-01T11:37:29;5.40;;;2.10;;
5393;SDS011;2720;52.396;10.064;2023-02-01T11:40:00;16.40;;;1.90;;
5393;SDS011;2720;52.396;10.064;2023-02-01T11:42:29;15.50;;;2.37;;
5393;SDS011;2720;52.396;10.064;2023-02-01T11:45:15;7.73;;;2.00;;
5393;SDS011;2720;52.396;10.064;2023-02-01T11:47:43;14.77;;;2.20;;
5393;SDS011;2720;52.396;10.064;2023-02-01T11:50:14;11.93;;;2.40;;
5393;SDS011;2720;52.396;10.064;2023-02-01T11:52:54;9.63;;;1.97;;
5393;SDS011;2720;52.396;10.064;2023-02-01T11:55:44;13.63;;;3.40;;
5393;SDS011;2720;52.396;10.064;2023-02-01T11:58:34;18.63;;;3.33;;
5393;SDS011;2720;52.396;10.064;2023-02-01T12:01:19;8.87;;;2.50;;
5393;SDS011;2720;52.396;10.064;2023-02-01T12:04:07;8.70;;;2.10;;
5393;SDS011;2720;52.396;10.064;2023-02-01T12:06:53;7.73;;;2.00;;
5393;SDS011;2720;52.396;10.064;2023-02-01T12:09:34;17.73;;;2.97;;
5393;SDS011;2720;52.396;10.064;2023-02-01T12:12:14;9.57;;;2.30;;
5393;SDS011;2720;52.396;10.064;2023-02-01T12:14:50;10.87;;;2.50;;
5393;SDS011;2720;52.396;10.064;2023-02-01T12:17:40;13.63;;;2.30;;
5393;SDS011;2720;52.396;10.064;2023-02-01T12:20:36;12.70;;;3.83;;
5393;SDS011;2720;52.396;10.064;2023-02-01T12:23:19;9.83;;;2.10;;
5393;SDS011;2720;52.396;10.064;2023-02-01T12:26:03;13.00;;;2.30;;
5393;SDS011;2720;52.396;10.064;2023-02-01T12:28:43;10.53;;;2.23;;
5393;SDS011;2720;52.396;10.064;2023-02-01T12:31:29;19.17;;;3.20;;
5393;SDS011;2720;52.396;10.064;2023-02-01T12:34:16;14.60;;;2.77;;
5393;SDS011;2720;52.396;10.064;2023-02-01T12:37:05;5.20;;;1.93;;
5393;SDS011;2720;52.396;10.064;2023-02-01T12:39:41;18.87;;;4.03;;
5393;SDS011;2720;52.396;10.064;2023-02-01T12:42:18;9.10;;;1.80;;
5393;SDS011;2720;52.396;10.064;2023-02-01T12:44:50;14.30;;;2.80;;
5393;SDS011;2720;52.396;10.064;2023-02-01T12:47:23;13.30;;;3.10;;
5393;SDS011;2720;52.396;10.064;2023-02-01T12:49:55;13.70;;;2.37;;
5393;SDS011;2720;52.396;10.064;2023-02-01T12:52:29;10.43;;;2.00;;
5393;SDS011;2720;52.396;10.064;2023-02-01T12:55:02;11.87;;;2.60;;
5393;SDS011;2720;52.396;10.064;2023-02-01T12:57:38;15.17;;;1.93;;
5393;SDS011;2720;52.396;10.064;2023-02-01T13:00:13;20.10;;;3.10;;
5393;SDS011;2720;52.396;10.064;2023-02-01T13:02:49;15.47;;;3.47;;
5393;SDS011;2720;52.396;10.064;2023-02-01T13:05:21;6.93;;;2.80;;
5393;SDS011;2720;52.396;10.064;2023-02-01T13:07:56;12.83;;;2.43;;
5393;SDS011;2720;52.396;10.064;2023-02-01T13:10:28;10.43;;;1.50;;
5393;SDS011;2720;52.396;10.064;2023-02-01T13:13:04;6.67;;;1.73;;
5393;SDS011;2720;52.396;10.064;2023-02-01T13:15:39;14.83;;;2.60;;
5393;SDS011;2720;52.396;10.064;2023-02-01T13:18:10;8.77;;;3.33;;
5393;SDS011;2720;52.396;10.064;2023-02-01T13:20:45;10.03;;;1.80;;
5393;SDS011;2720;52.396;10.064;2023-02-01T13:23:18;11.53;;;2.17;;
5393;SDS011;2720;52.396;10.064;2023-02-01T13:25:52;11.17;;;1.70;;
5393;SDS011;2720;52.396;10.064;2023-02-01T13:28:23;6.60;;;1.43;;
5393;SDS011;2720;52.396;10.064;2023-02-01T13:30:58;16.37;;;1.63;;
5393;SDS011;2720;52.396;10.064;2023-02-01T13:33:55;10.73;;;2.33;;
5393;SDS011;2720;52.396;10.064;2023-02-01T13:36:47;4.70;;;1.57;;
5393;SDS011;2720;52.396;10.064;2023-02-01T13:39:36;30.17;;;2.20;;
5393;SDS011;2720;52.396;10.064;2023-02-01T13:42:13;1.33;;;0.93;;
5393;SDS011;2720;52.396;10.064;2023-02-01T13:44:45;2.93;;;1.03;;
5393;SDS011;2720;52.396;10.064;2023-02-01T13:47:21;12.03;;;1.17;;
5393;SDS011;2720;52.396;10.064;2023-02-01T13:49:52;3.10;;;1.47;;
5393;SDS011;2720;52.396;10.064;2023-02-01T13:52:24;2.57;;;0.47;;
5393;SDS011;2720;52.396;10.064;2023-02-01T13:55:02;2.10;;;0.70;;
5393;SDS011;2720;52.396;10.064;2023-02-01T13:57:41;1.60;;;0.90;;
5393;SDS011;2720;52.396;10.064;2023-02-01T14:00:23;2.30;;;0.50;;
5393;SDS011;2720;52.396;10.064;2023-02-01T14:06:02;0.73;;;0.40;;
5393;SDS011;2720;52.396;10.064;2023-02-01T14:08:43;0.97;;;0.60;;
5393;SDS011;2720;52.396;10.064;2023-02-01T14:11:32;4.30;;;1.07;;
5393;SDS011;2720;52.396;10.064;2023-02-01T14:23:14;2.70;;;0.90;;
5393;SDS011;2720;52.396;10.064;2023-02-01T14:25:43;2.00;;;0.90;;
5393;SDS011;2720;52.396;10.064;2023-02-01T14:28:12;2.40;;;1.17;;
5393;SDS011;2720;52.396;10.064;2023-02-01T14:30:50;0.93;;;0.73;;
5393;SDS011;2720;52.396;10.064;2023-02-01T14:33:20;9.03;;;0.70;;
5393;SDS011;2720;52.396;10.064;2023-02-01T14:36:01;5.10;;;0.90;;
5393;SDS011;2720;52.396;10.064;2023-02-01T14:38:32;3.13;;;1.00;;
5393;SDS011;2720;52.396;10.064;2023-02-01T14:41:24;1.40;;;1.10;;
5393;SDS011;2720;52.396;10.064;2023-02-01T14:47:06;5.80;;;1.10;;
5393;SDS011;2720;52.396;10.064;2023-02-01T14:50:04;0.77;;;0.60;;
5393;SDS011;2720;52.396;10.064;2023-02-01T14:52:44;1.47;;;0.83;;
5393;SDS011;2720;52.396;10.064;2023-02-01T14:55:14;0.70;;;0.60;;
5393;SDS011;2720;52.396;10.064;2023-02-01T14:57:46;1.30;;;0.50;;
5393;SDS011;2720;52.396;10.064;2023-02-01T15:00:19;2.40;;;0.73;;
5393;SDS011;2720;52.396;10.064;2023-02-01T15:02:49;3.50;;;0.60;;
5393;SDS011;2720;52.396;10.064;2023-02-01T15:08:07;0.60;;;0.60;;
5393;SDS011;2720;52.396;10.064;2023-02-01T15:10:42;3.47;;;1.00;;
5393;SDS011;2720;52.396;10.064;2023-02-01T15:13:21;3.03;;;0.60;;
5393;SDS011;2720;52.396;10.064;2023-02-01T15:16:02;1.73;;;0.90;;
5393;SDS011;2720;52.396;10.064;2023-02-01T15:18:31;5.50;;;1.03;;
5393;SDS011;2720;52.396;10.064;2023-02-01T15:21:00;4.63;;;1.07;;
5393;SDS011;2720;52.396;10.064;2023-02-01T15:23:28;6.07;;;1.07;;
5393;SDS011;2720;52.396;10.064;2023-02-01T15:25:56;1.70;;;0.77;;
5393;SDS011;2720;52.396;10.064;2023-02-01T15:28:24;0.80;;;0.73;;
5393;SDS011;2720;52.396;10.064;2023-02-01T15:30:52;4.33;;;1.77;;
5393;SDS011;2720;52.396;10.064;2023-02-01T15:33:21;3.17;;;1.20;;
5393;SDS011;2720;52.396;10.064;2023-02-01T15:35:49;4.47;;;1.03;;
5393;SDS011;2720;52.396;10.064;2023-02-01T15:38:35;3.67;;;2.40;;